Sobey, WA

3:39 AM PST on December 10, 2016 (GMT -0800)
Pinnacle Ridge | | Change Station

Elev 412 ft 48.07 °N, 122.00 °W | Updated 3 minutes ago

Rain
Rain
33.6 °F
Feels Like 34 °F
N
0.0
Wind Variable Wind from SSW

Today
High -- | Low -- °F
--% Chance of Precip.
Yesterday
High -- | Low -- °F
Precip. -- in
Pressure 29.86 in
Visibility 4.0 miles
Clouds Overcast 1300 ft
Windchill 34 °F
Dew Point 33 °F
Humidity 99%
Rainfall 0.04 in
Snow Depth Not available.
7:47 AM 4:14 PM
Waxing Gibbous, 83% visible
METAR KAWO 101135Z AUTO 36005KT 4SM OVC013 01/M03 A2986 RMK AO1 P0002
Pressure 29.86 in
Visibility 4.0 miles
Clouds Overcast 1300 ft
Windchill 34 °F
Dew Point 33 °F
Humidity 99%
Rainfall 0.04 in
Snow Depth Not available.
7:47 AM 4:14 PM
Waxing Gibbous, 83% visible
METAR KAWO 101135Z AUTO 36005KT 4SM OVC013 01/M03 A2986 RMK AO1 P0002

10-Day Weather Forecast

Almanac

Astronomy

Dec. 10, 2016 Rise Set
Actual Time
Civil Twilight
Nautical Twilight
Astronomical Twilight
Moon
Length of Visible Light
Length of Day
Tomorrow will be .
, % of the Moon is Illuminated

Today's Extremes

State Highs State Lows

Community

WunderPhotos

Upload Photos

1,956,536 photos uploaded!

WunderBlog® & News

Nearby

Air Quality

  Air Quality AQ Index Pollutant
Not available.

Snow Depth

Station Depth Elevation

Earthquake Activity

City Distance Mag. Time & Date
Minimum magnitude displayed is 2.5.

Coastal Water Temperatures

Place Temperature

Stations

Nearby Weather Stations

Station Location Temp. Windchill Dew Point Humidity Wind Precip. Elev Updated Type
                   

Watches & Warnings

There are currently no watches in effect.